sensor_id;sensor_type;location;lat;lon;timestamp;P1;durP1;ratioP1;P2;durP2;ratioP2
57535;SDS011;43361;49.790;8.960;2023-04-22T00:01:40;1.90;;;1.30;;
57535;SDS011;43361;49.790;8.960;2023-04-22T00:21:42;2.23;;;1.37;;
57535;SDS011;43361;49.790;8.960;2023-04-22T00:31:43;2.25;;;1.30;;
57535;SDS011;43361;49.790;8.960;2023-04-22T00:41:44;1.80;;;1.30;;
57535;SDS011;43361;49.790;8.960;2023-04-22T00:51:45;2.17;;;1.58;;
57535;SDS011;43361;49.790;8.960;2023-04-22T01:01:47;2.28;;;1.40;;
57535;SDS011;43361;49.790;8.960;2023-04-22T01:11:47;2.45;;;1.80;;
57535;SDS011;43361;49.790;8.960;2023-04-22T01:21:49;2.05;;;1.15;;
57535;SDS011;43361;49.790;8.960;2023-04-22T01:31:51;2.33;;;1.50;;
57535;SDS011;43361;49.790;8.960;2023-04-22T01:41:51;2.13;;;1.20;;
57535;SDS011;43361;49.790;8.960;2023-04-22T01:51:54;2.00;;;1.42;;
57535;SDS011;43361;49.790;8.960;2023-04-22T02:01:54;1.90;;;1.20;;
57535;SDS011;43361;49.790;8.960;2023-04-22T02:21:56;2.73;;;1.60;;
57535;SDS011;43361;49.790;8.960;2023-04-22T02:31:57;1.60;;;1.15;;
57535;SDS011;43361;49.790;8.960;2023-04-22T02:41:58;1.73;;;1.00;;
57535;SDS011;43361;49.790;8.960;2023-04-22T02:51:59;1.50;;;1.15;;
57535;SDS011;43361;49.790;8.960;2023-04-22T03:02:01;1.73;;;1.13;;
57535;SDS011;43361;49.790;8.960;2023-04-22T03:12:01;1.65;;;1.10;;
57535;SDS011;43361;49.790;8.960;2023-04-22T03:32:03;1.43;;;0.83;;
57535;SDS011;43361;49.790;8.960;2023-04-22T03:42:04;1.55;;;1.00;;
57535;SDS011;43361;49.790;8.960;2023-04-22T03:52:06;1.92;;;0.80;;
57535;SDS011;43361;49.790;8.960;2023-04-22T04:02:06;2.42;;;0.90;;
57535;SDS011;43361;49.790;8.960;2023-04-22T04:12:09;1.20;;;0.70;;
57535;SDS011;43361;49.790;8.960;2023-04-22T04:22:10;1.25;;;0.70;;
57535;SDS011;43361;49.790;8.960;2023-04-22T04:32:12;1.02;;;0.70;;
57535;SDS011;43361;49.790;8.960;2023-04-22T04:42:13;1.30;;;0.80;;
57535;SDS011;43361;49.790;8.960;2023-04-22T05:02:15;0.90;;;0.60;;
57535;SDS011;43361;49.790;8.960;2023-04-22T05:12:15;1.33;;;0.60;;
57535;SDS011;43361;49.790;8.960;2023-04-22T05:22:17;0.90;;;0.60;;
57535;SDS011;43361;49.790;8.960;2023-04-22T05:32:18;1.15;;;0.70;;
57535;SDS011;43361;49.790;8.960;2023-04-22T05:42:19;6.18;;;0.80;;
57535;SDS011;43361;49.790;8.960;2023-04-22T05:52:20;3.22;;;0.80;;
57535;SDS011;43361;49.790;8.960;2023-04-22T06:12:22;24.00;;;9.63;;
57535;SDS011;43361;49.790;8.960;2023-04-22T06:22:22;24.88;;;10.70;;
57535;SDS011;43361;49.790;8.960;2023-04-22T06:42:24;13.73;;;9.80;;
57535;SDS011;43361;49.790;8.960;2023-04-22T06:52:25;14.18;;;8.20;;
57535;SDS011;43361;49.790;8.960;2023-04-22T07:02:26;16.38;;;7.30;;
57535;SDS011;43361;49.790;8.960;2023-04-22T07:12:27;19.33;;;6.40;;
57535;SDS011;43361;49.790;8.960;2023-04-22T07:22:29;21.85;;;5.82;;
57535;SDS011;43361;49.790;8.960;2023-04-22T07:32:29;10.23;;;4.65;;
57535;SDS011;43361;49.790;8.960;2023-04-22T07:42:31;9.93;;;3.95;;
57535;SDS011;43361;49.790;8.960;2023-04-22T07:52:31;11.70;;;4.30;;
57535;SDS011;43361;49.790;8.960;2023-04-22T08:02:33;7.35;;;4.15;;
57535;SDS011;43361;49.790;8.960;2023-04-22T08:12:34;11.50;;;4.05;;
57535;SDS011;43361;49.790;8.960;2023-04-22T08:22:36;6.57;;;2.42;;
57535;SDS011;43361;49.790;8.960;2023-04-22T08:32:37;5.85;;;2.63;;
57535;SDS011;43361;49.790;8.960;2023-04-22T08:42:39;6.65;;;2.22;;
57535;SDS011;43361;49.790;8.960;2023-04-22T08:52:40;10.10;;;2.85;;
57535;SDS011;43361;49.790;8.960;2023-04-22T09:02:42;8.55;;;2.60;;
57535;SDS011;43361;49.790;8.960;2023-04-22T09:12:45;10.65;;;2.60;;
57535;SDS011;43361;49.790;8.960;2023-04-22T09:22:49;13.32;;;3.03;;
57535;SDS011;43361;49.790;8.960;2023-04-22T09:32:52;16.45;;;3.00;;
57535;SDS011;43361;49.790;8.960;2023-04-22T09:42:55;17.00;;;2.75;;
57535;SDS011;43361;49.790;8.960;2023-04-22T09:52:58;9.18;;;2.92;;
57535;SDS011;43361;49.790;8.960;2023-04-22T10:03:00;12.07;;;2.88;;
57535;SDS011;43361;49.790;8.960;2023-04-22T10:13:00;219.98;;;66.28;;
57535;SDS011;43361;49.790;8.960;2023-04-22T10:23:03;154.27;;;47.15;;
57535;SDS011;43361;49.790;8.960;2023-04-22T10:43:40;101.20;;;30.08;;
57535;SDS011;43361;49.790;8.960;2023-04-22T10:53:41;85.05;;;26.60;;
57535;SDS011;43361;49.790;8.960;2023-04-22T11:03:44;75.10;;;24.92;;
57535;SDS011;43361;49.790;8.960;2023-04-22T11:13:45;67.25;;;22.83;;
57535;SDS011;43361;49.790;8.960;2023-04-22T11:23:49;64.00;;;21.95;;
57535;SDS011;43361;49.790;8.960;2023-04-22T11:33:56;67.25;;;21.45;;
57535;SDS011;43361;49.790;8.960;2023-04-22T11:44:00;61.42;;;20.73;;
57535;SDS011;43361;49.790;8.960;2023-04-22T11:54:00;54.22;;;19.73;;
57535;SDS011;43361;49.790;8.960;2023-04-22T12:04:03;63.67;;;20.38;;
57535;SDS011;43361;49.790;8.960;2023-04-22T12:14:04;58.75;;;18.77;;
57535;SDS011;43361;49.790;8.960;2023-04-22T12:24:08;40.60;;;16.20;;
57535;SDS011;43361;49.790;8.960;2023-04-22T12:34:10;41.35;;;16.35;;
57535;SDS011;43361;49.790;8.960;2023-04-22T12:44:12;42.42;;;15.20;;
57535;SDS011;43361;49.790;8.960;2023-04-22T12:54:12;40.05;;;14.25;;
57535;SDS011;43361;49.790;8.960;2023-04-22T13:04:14;38.72;;;13.43;;
57535;SDS011;43361;49.790;8.960;2023-04-22T13:14:14;35.45;;;12.45;;
57535;SDS011;43361;49.790;8.960;2023-04-22T13:24:16;29.88;;;11.60;;
57535;SDS011;43361;49.790;8.960;2023-04-22T13:34:16;35.47;;;11.80;;
57535;SDS011;43361;49.790;8.960;2023-04-22T13:44:18;29.58;;;12.15;;
57535;SDS011;43361;49.790;8.960;2023-04-22T13:54:19;31.60;;;11.38;;
57535;SDS011;43361;49.790;8.960;2023-04-22T14:04:20;26.35;;;10.73;;
57535;SDS011;43361;49.790;8.960;2023-04-22T14:14:21;25.35;;;10.73;;
57535;SDS011;43361;49.790;8.960;2023-04-22T14:34:24;22.38;;;9.93;;
57535;SDS011;43361;49.790;8.960;2023-04-22T14:44:26;26.48;;;9.80;;
57535;SDS011;43361;49.790;8.960;2023-04-22T14:54:27;25.20;;;9.20;;
57535;SDS011;43361;49.790;8.960;2023-04-22T15:04:28;24.88;;;9.15;;
57535;SDS011;43361;49.790;8.960;2023-04-22T15:14:30;23.00;;;9.07;;
57535;SDS011;43361;49.790;8.960;2023-04-22T15:24:30;21.08;;;9.25;;
57535;SDS011;43361;49.790;8.960;2023-04-22T15:34:32;17.98;;;8.00;;
57535;SDS011;43361;49.790;8.960;2023-04-22T15:44:33;20.48;;;8.77;;
57535;SDS011;43361;49.790;8.960;2023-04-22T15:54:35;17.63;;;7.30;;
57535;SDS011;43361;49.790;8.960;2023-04-22T16:04:36;19.55;;;8.10;;
57535;SDS011;43361;49.790;8.960;2023-04-22T16:14:37;18.08;;;7.45;;
57535;SDS011;43361;49.790;8.960;2023-04-22T16:24:38;17.35;;;7.75;;
57535;SDS011;43361;49.790;8.960;2023-04-22T16:34:40;16.48;;;7.05;;
57535;SDS011;43361;49.790;8.960;2023-04-22T16:44:40;16.10;;;7.30;;
57535;SDS011;43361;49.790;8.960;2023-04-22T16:54:42;16.85;;;7.05;;
57535;SDS011;43361;49.790;8.960;2023-04-22T17:04:42;19.23;;;7.35;;
57535;SDS011;43361;49.790;8.960;2023-04-22T17:14:44;14.55;;;6.65;;
57535;SDS011;43361;49.790;8.960;2023-04-22T17:24:44;12.57;;;6.35;;
57535;SDS011;43361;49.790;8.960;2023-04-22T17:44:46;13.47;;;6.53;;
57535;SDS011;43361;49.790;8.960;2023-04-22T17:54:47;14.30;;;6.25;;
57535;SDS011;43361;49.790;8.960;2023-04-22T18:04:48;12.63;;;6.32;;
57535;SDS011;43361;49.790;8.960;2023-04-22T18:14:49;13.52;;;6.53;;
57535;SDS011;43361;49.790;8.960;2023-04-22T18:34:51;11.83;;;6.13;;
57535;SDS011;43361;49.790;8.960;2023-04-22T18:44:51;14.70;;;6.05;;
57535;SDS011;43361;49.790;8.960;2023-04-22T19:04:53;12.63;;;5.77;;
57535;SDS011;43361;49.790;8.960;2023-04-22T19:14:54;10.38;;;5.10;;
57535;SDS011;43361;49.790;8.960;2023-04-22T19:34:56;11.30;;;5.37;;
57535;SDS011;43361;49.790;8.960;2023-04-22T19:44:56;10.68;;;4.97;;
57535;SDS011;43361;49.790;8.960;2023-04-22T19:54:59;11.32;;;5.00;;
57535;SDS011;43361;49.790;8.960;2023-04-22T20:05:01;9.07;;;4.70;;
57535;SDS011;43361;49.790;8.960;2023-04-22T20:15:07;12.40;;;4.80;;
57535;SDS011;43361;49.790;8.960;2023-04-22T20:25:10;7.60;;;4.38;;
57535;SDS011;43361;49.790;8.960;2023-04-22T20:35:13;9.50;;;4.30;;
57535;SDS011;43361;49.790;8.960;2023-04-22T20:45:15;8.93;;;4.10;;
57535;SDS011;43361;49.790;8.960;2023-04-22T20:55:18;11.50;;;4.28;;
57535;SDS011;43361;49.790;8.960;2023-04-22T21:05:18;8.88;;;3.92;;
57535;SDS011;43361;49.790;8.960;2023-04-22T21:15:22;12.40;;;3.78;;
57535;SDS011;43361;49.790;8.960;2023-04-22T21:25:24;7.57;;;4.30;;
57535;SDS011;43361;49.790;8.960;2023-04-22T21:35:26;7.50;;;3.97;;
57535;SDS011;43361;49.790;8.960;2023-04-22T21:45:27;7.28;;;3.78;;
57535;SDS011;43361;49.790;8.960;2023-04-22T21:55:29;13.80;;;3.30;;
57535;SDS011;43361;49.790;8.960;2023-04-22T22:05:29;18.25;;;4.70;;
57535;SDS011;43361;49.790;8.960;2023-04-22T22:15:31;6.25;;;3.42;;
57535;SDS011;43361;49.790;8.960;2023-04-22T22:25:31;6.95;;;3.83;;
57535;SDS011;43361;49.790;8.960;2023-04-22T22:35:33;6.60;;;3.50;;
57535;SDS011;43361;49.790;8.960;2023-04-22T22:45:33;6.22;;;3.47;;
57535;SDS011;43361;49.790;8.960;2023-04-22T22:55:36;5.55;;;3.20;;
57535;SDS011;43361;49.790;8.960;2023-04-22T23:05:36;4.85;;;2.80;;
57535;SDS011;43361;49.790;8.960;2023-04-22T23:15:38;5.30;;;3.08;;
57535;SDS011;43361;49.790;8.960;2023-04-22T23:25:39;6.68;;;2.92;;
57535;SDS011;43361;49.790;8.960;2023-04-22T23:35:41;4.63;;;2.80;;
57535;SDS011;43361;49.790;8.960;2023-04-22T23:45:42;3.72;;;2.53;;
57535;SDS011;43361;49.790;8.960;2023-04-22T23:55:44;6.00;;;3.05;;
